Time;durP1;ratioP1;P1;durP2;ratioP2;P2;SDS_P1;SDS_P2;PMS_P1;PMS_P2;Temp;Humidity;BMP_temperature;BMP_pressure;BME280_temperature;BME280_humidity;BME280_pressure;Samples;Min_cycle;Max_cycle;Signal;HPM_P1;HPM_P2
2022/04/24 00:00:07;;;;;;;16.10;14.80;;;9.80;99.90;;;;;;5139784;27;20652;-82
2022/04/24 00:02:34;;;;;;;15.93;14.70;;;10.50;99.90;;;;;;5136998;27;20637;-80
2022/04/24 00:05:01;;;;;;;14.80;13.70;;;9.90;99.90;;;;;;5138309;27;20625;-80
2022/04/24 00:07:29;;;;;;;15.90;14.50;;;10.30;99.90;;;;;;5139972;27;20811;-80
2022/04/24 00:09:57;;;;;;;16.17;14.97;;;10.10;99.90;;;;;;5137632;27;20977;-80
2022/04/24 00:12:24;;;;;;;16.93;15.53;;;10.10;99.90;;;;;;5140742;27;21069;-80
2022/04/24 00:14:50;;;;;;;15.87;14.43;;;10.40;99.90;;;;;;5138299;27;20622;-81
2022/04/24 00:17:20;;;;;;;15.10;13.90;;;10.20;99.90;;;;;;5134689;27;20642;-81
2022/04/24 00:19:48;;;;;;;17.27;15.87;;;10.30;99.90;;;;;;5142582;27;20641;-80
2022/04/24 00:22:15;;;;;;;15.67;14.50;;;10.00;99.90;;;;;;5137403;27;20618;-82
2022/04/24 00:24:42;;;;;;;14.57;13.30;;;10.50;99.90;;;;;;5134425;27;20617;-81
2022/04/24 00:27:10;;;;;;;15.20;14.10;;;10.40;99.90;;;;;;5133565;27;20630;-81
2022/04/24 00:29:37;;;;;;;15.57;14.27;;;10.40;99.90;;;;;;5138150;27;20646;-82
2022/04/24 00:32:05;;;;;;;16.20;14.90;;;10.10;99.90;;;;;;5140607;27;21199;-81
2022/04/24 00:34:32;;;;;;;16.93;15.43;;;10.40;99.90;;;;;;5139922;27;20621;-80
2022/04/24 00:36:59;;;;;;;16.30;15.00;;;10.00;99.90;;;;;;5137958;27;20636;-81
2022/04/24 00:39:26;;;;;;;15.87;14.43;;;10.00;99.90;;;;;;5140563;27;20618;-81
2022/04/24 00:41:52;;;;;;;17.43;16.00;;;10.50;99.90;;;;;;5138387;27;21002;-81
2022/04/24 00:44:21;;;;;;;16.40;15.10;;;10.00;99.90;;;;;;5137702;27;20633;-81
2022/04/24 00:46:54;;;;;;;17.63;16.03;;;10.70;99.90;;;;;;5143084;27;20645;-81
2022/04/24 00:49:21;;;;;;;17.20;15.80;;;10.30;99.90;;;;;;5144077;27;20582;-81
2022/04/24 00:51:48;;;;;;;17.80;16.30;;;10.70;99.90;;;;;;5140539;27;20711;-81
2022/04/24 00:54:15;;;;;;;18.83;17.43;;;10.60;99.90;;;;;;5141120;27;20629;-81
2022/04/24 00:56:43;;;;;;;16.37;15.07;;;10.70;99.90;;;;;;5136520;27;20626;-80
2022/04/24 00:59:14;;;;;;;17.93;16.63;;;10.70;99.90;;;;;;5146028;27;20724;-81
2022/04/24 01:01:43;;;;;;;17.37;16.03;;;10.50;99.90;;;;;;5144639;27;20739;-81
2022/04/24 01:04:12;;;;;;;18.33;16.93;;;10.80;99.90;;;;;;5141390;27;20618;-81
2022/04/24 01:06:41;;;;;;;18.10;16.70;;;10.40;99.90;;;;;;5136068;27;20601;-81
2022/04/24 01:09:13;;;;;;;18.20;16.80;;;10.50;99.90;;;;;;5140421;27;20637;-81
2022/04/24 01:11:40;;;;;;;19.10;17.60;;;10.90;99.90;;;;;;5142078;27;20647;-81
2022/04/24 01:14:08;;;;;;;18.17;16.80;;;10.90;99.90;;;;;;5142347;27;20633;-81
2022/04/24 01:16:35;;;;;;;18.53;17.00;;;11.00;99.90;;;;;;5141488;27;21078;-81
2022/04/24 01:19:04;;;;;;;17.03;15.73;;;10.70;99.90;;;;;;5141022;27;20673;-81
2022/04/24 01:21:33;;;;;;;16.60;15.30;;;11.00;99.90;;;;;;5140843;27;20655;-81
2022/04/24 01:24:00;;;;;;;16.53;15.23;;;11.00;99.90;;;;;;5140046;27;20966;-81
2022/04/24 01:26:27;;;;;;;15.73;14.43;;;11.00;99.90;;;;;;5144725;27;20632;-81
2022/04/24 01:28:53;;;;;;;17.10;15.60;;;11.10;99.90;;;;;;5145457;27;20632;-81
2022/04/24 01:31:20;;;;;;;18.27;16.77;;;11.00;99.90;;;;;;5142847;27;20645;-81
2022/04/24 01:33:47;;;;;;;16.90;15.70;;;10.80;99.90;;;;;;5144058;27;21005;-81
2022/04/24 01:36:13;;;;;;;19.50;17.87;;;10.90;99.90;;;;;;5140929;27;20636;-81
2022/04/24 01:38:42;;;;;;;16.00;14.80;;;10.90;99.90;;;;;;5139362;27;20625;-81
2022/04/24 01:41:09;;;;;;;16.97;15.63;;;11.10;99.90;;;;;;5143849;27;20651;-81
2022/04/24 01:43:37;;;;;;;17.33;15.93;;;11.00;99.90;;;;;;5140699;27;20626;-81
2022/04/24 01:46:04;;;;;;;17.50;16.00;;;11.20;99.90;;;;;;5142557;27;20657;-81
2022/04/24 01:48:33;;;;;;;16.07;14.77;;;11.10;99.90;;;;;;5141975;27;20643;-81
2022/04/24 01:51:00;;;;;;;18.07;16.57;;;11.20;99.90;;;;;;5137025;27;21136;-83
2022/04/24 01:53:26;;;;;;;16.53;14.90;;;10.70;99.90;;;;;;5139446;27;20702;-81
2022/04/24 01:55:55;;;;;;;15.67;14.47;;;11.00;99.90;;;;;;5144527;27;20617;-82
2022/04/24 01:58:21;;;;;;;15.10;13.90;;;11.20;99.90;;;;;;5143955;27;20625;-83
2022/04/24 02:00:48;;;;;;;15.53;14.33;;;10.70;99.90;;;;;;5147603;27;20679;-83
2022/04/24 02:03:15;;;;;;;15.73;14.53;;;11.10;99.90;;;;;;5146600;27;20609;-82
2022/04/24 02:05:42;;;;;;;18.47;16.83;;;10.90;99.90;;;;;;5137988;27;20632;-83
2022/04/24 02:08:08;;;;;;;18.10;15.73;;;10.80;99.90;;;;;;5146195;27;20617;-82
2022/04/24 02:10:35;;;;;;;18.70;17.20;;;11.20;99.90;;;;;;5143145;27;21026;-81
2022/04/24 02:13:03;;;;;;;17.40;15.53;;;11.20;99.90;;;;;;5146625;27;20664;-83
2022/04/24 02:15:30;;;;;;;16.80;15.40;;;10.70;99.90;;;;;;5146951;27;20632;-82
2022/04/24 02:17:57;;;;;;;16.40;15.10;;;11.10;99.90;;;;;;5145227;27;21206;-82
2022/04/24 02:20:24;;;;;;;16.13;14.83;;;10.60;99.90;;;;;;5140158;27;20657;-82
2022/04/24 02:22:51;;;;;;;16.80;15.30;;;10.70;99.90;;;;;;5147713;27;20975;-83
2022/04/24 02:25:18;;;;;;;18.00;16.60;;;10.60;99.90;;;;;;5135383;27;20626;-82
2022/04/24 02:27:45;;;;;;;17.57;16.17;;;10.80;99.90;;;;;;5144965;27;20645;-82
2022/04/24 02:30:13;;;;;;;18.23;16.70;;;11.00;99.90;;;;;;5141649;27;20645;-82
2022/04/24 02:32:40;;;;;;;18.47;16.90;;;10.90;99.90;;;;;;5144602;27;20649;-82
2022/04/24 02:35:07;;;;;;;18.03;16.53;;;10.60;99.90;;;;;;5143328;27;20629;-81
2022/04/24 02:37:34;;;;;;;18.00;16.47;;;11.00;99.90;;;;;;5142193;27;20634;-80
2022/04/24 02:40:00;;;;;;;18.00;16.50;;;10.80;99.90;;;;;;5144290;27;21250;-80
2022/04/24 02:42:27;;;;;;;18.23;16.50;;;10.50;99.90;;;;;;5142892;27;20629;-80
2022/04/24 02:44:54;;;;;;;20.37;18.70;;;10.50;99.90;;;;;;5142482;27;20635;-80
2022/04/24 02:47:22;;;;;;;20.20;18.60;;;10.70;99.90;;;;;;5141534;27;20678;-80
2022/04/24 02:49:49;;;;;;;19.90;18.17;;;10.50;99.90;;;;;;5143295;27;20654;-80
2022/04/24 02:52:15;;;;;;;19.73;18.03;;;11.00;99.90;;;;;;5145937;27;21198;-80
2022/04/24 02:54:42;;;;;;;21.30;19.53;;;10.80;99.90;;;;;;5141264;27;20614;-83
2022/04/24 02:57:09;;;;;;;19.80;18.20;;;10.60;99.90;;;;;;5146170;27;20625;-82
2022/04/24 02:59:35;;;;;;;20.70;19.03;;;10.80;99.90;;;;;;5136488;27;20646;-80
2022/04/24 03:02:04;;;;;;;19.07;17.47;;;10.90;99.90;;;;;;5147283;27;20658;-80
2022/04/24 03:04:32;;;;;;;21.30;19.50;;;10.60;99.90;;;;;;5142595;27;20768;-82
2022/04/24 03:06:58;;;;;;;19.40;17.87;;;11.10;99.90;;;;;;5141557;27;20644;-80
2022/04/24 03:09:25;;;;;;;20.63;18.97;;;10.40;99.90;;;;;;5144247;27;20633;-80
2022/04/24 03:11:52;;;;;;;21.27;19.33;;;10.70;99.90;;;;;;5150437;27;20618;-82
2022/04/24 03:14:18;;;;;;;20.13;18.23;;;10.60;99.90;;;;;;5140752;27;20677;-82
2022/04/24 03:16:45;;;;;;;20.07;18.37;;;10.50;99.90;;;;;;5146828;27;21170;-82
2022/04/24 03:19:12;;;;;;;22.00;20.33;;;10.80;99.90;;;;;;5139467;27;20634;-82
2022/04/24 03:21:40;;;;;;;22.50;20.70;;;10.50;99.90;;;;;;5150177;27;20884;-82
2022/04/24 03:24:07;;;;;;;21.27;19.57;;;10.80;99.90;;;;;;5140827;27;20624;-82
2022/04/24 03:26:34;;;;;;;22.70;20.83;;;10.80;99.90;;;;;;5146788;27;20629;-82
2022/04/24 03:29:00;;;;;;;24.73;22.70;;;10.40;99.90;;;;;;5142463;27;20633;-82
2022/04/24 03:31:27;;;;;;;23.07;21.27;;;10.40;99.90;;;;;;5140478;27;21096;-81
2022/04/24 03:33:54;;;;;;;23.07;21.07;;;10.30;99.90;;;;;;5144201;27;20704;-82
2022/04/24 03:36:21;;;;;;;22.90;21.10;;;10.30;99.90;;;;;;5142175;27;20680;-82
2022/04/24 03:38:49;;;;;;;22.20;20.33;;;10.80;99.90;;;;;;5145887;27;20629;-82
2022/04/24 03:41:16;;;;;;;21.50;19.90;;;10.90;99.90;;;;;;5140789;27;20681;-82
2022/04/24 03:43:43;;;;;;;22.37;20.57;;;10.40;99.90;;;;;;5139949;27;20657;-81
2022/04/24 03:46:10;;;;;;;23.07;21.27;;;10.70;99.90;;;;;;5143080;27;20633;-81
2022/04/24 03:48:36;;;;;;;22.10;20.30;;;10.90;99.90;;;;;;5141996;27;21186;-81
2022/04/24 03:51:04;;;;;;;22.40;20.43;;;10.90;99.90;;;;;;5144731;27;20983;-81
2022/04/24 03:53:30;;;;;;;22.47;20.63;;;10.70;99.90;;;;;;5137198;27;20756;-81
2022/04/24 03:55:59;;;;;;;23.50;21.63;;;10.50;99.90;;;;;;5143651;27;20980;-81
2022/04/24 03:58:26;;;;;;;22.27;20.47;;;10.40;99.90;;;;;;5128425;27;20638;-81
2022/04/24 04:00:53;;;;;;;23.23;21.23;;;10.90;99.90;;;;;;5137536;27;20641;-81
2022/04/24 04:03:19;;;;;;;24.40;22.20;;;10.40;99.90;;;;;;5137363;27;20605;-82
2022/04/24 04:05:46;;;;;;;24.47;22.57;;;10.90;99.90;;;;;;5142028;27;20621;-82
2022/04/24 04:08:13;;;;;;;23.13;21.30;;;10.40;99.90;;;;;;5142669;27;20616;-81
2022/04/24 04:10:39;;;;;;;22.30;20.50;;;10.60;99.90;;;;;;5133698;27;20854;-82
2022/04/24 04:13:09;;;;;;;23.50;21.50;;;10.80;99.90;;;;;;5136939;27;20669;-81
2022/04/24 04:15:36;;;;;;;22.70;20.97;;;10.90;99.90;;;;;;5139596;27;21443;-81
2022/04/24 04:18:03;;;;;;;21.97;20.27;;;10.80;99.90;;;;;;5140412;27;20633;-81
2022/04/24 04:20:30;;;;;;;24.07;22.10;;;10.80;99.90;;;;;;5140696;27;20645;-82
2022/04/24 04:22:59;;;;;;;23.43;21.50;;;10.50;99.90;;;;;;5129573;27;20613;-82
2022/04/24 04:25:26;;;;;;;22.83;21.03;;;10.80;99.90;;;;;;5138313;27;20714;-81
2022/04/24 04:27:53;;;;;;;24.53;22.43;;;10.40;99.90;;;;;;5144014;27;20609;-82
2022/04/24 04:30:22;;;;;;;23.80;21.90;;;10.60;99.90;;;;;;5142349;27;21077;-81
2022/04/24 04:32:50;;;;;;;24.13;22.23;;;11.00;99.90;;;;;;5141477;27;20973;-81
2022/04/24 04:35:18;;;;;;;24.87;22.87;;;10.60;99.90;;;;;;5138813;27;20610;-80
2022/04/24 04:37:47;;;;;;;25.90;23.80;;;10.80;99.90;;;;;;5140933;27;20990;-80
2022/04/24 04:40:14;;;;;;;27.67;25.37;;;10.40;99.90;;;;;;5143216;27;20688;-79
2022/04/24 04:42:41;;;;;;;26.57;24.27;;;10.80;99.90;;;;;;5141701;27;20621;-78
2022/04/24 04:45:08;;;;;;;27.57;25.07;;;10.50;99.90;;;;;;5140043;27;20632;-78
2022/04/24 04:47:36;;;;;;;23.80;21.60;;;10.90;99.90;;;;;;5141766;27;21223;-78
2022/04/24 04:50:04;;;;;;;19.03;17.47;;;10.70;99.90;;;;;;5142088;27;20709;-78
2022/04/24 04:52:32;;;;;;;14.23;13.03;;;10.70;99.90;;;;;;5141504;27;20621;-78
2022/04/24 04:54:59;;;;;;;8.73;8.10;;;10.30;99.90;;;;;;5131359;27;20665;-78
2022/04/24 04:57:26;;;;;;;6.37;5.80;;;10.60;99.90;;;;;;5140597;27;21009;-78
2022/04/24 04:59:53;;;;;;;4.83;4.27;;;10.40;99.90;;;;;;5142358;27;20649;-79
2022/04/24 05:02:20;;;;;;;4.80;4.37;;;10.00;99.90;;;;;;5142561;27;20725;-78
2022/04/24 05:04:48;;;;;;;5.23;4.70;;;10.20;99.90;;;;;;5134145;27;20613;-78
2022/04/24 05:07:15;;;;;;;5.80;5.40;;;9.90;99.90;;;;;;5147441;27;20621;-78
2022/04/24 05:09:41;;;;;;;4.70;4.40;;;10.30;99.90;;;;;;5144098;27;21037;-79
2022/04/24 05:12:10;;;;;;;4.40;4.00;;;10.20;99.90;;;;;;5145154;27;20712;-78
2022/04/24 05:14:37;;;;;;;4.43;4.03;;;10.20;99.90;;;;;;5145442;27;20757;-79
2022/04/24 05:17:04;;;;;;;2.70;2.50;;;9.70;99.90;;;;;;5145109;27;20997;-79
2022/04/24 05:19:31;;;;;;;2.60;2.40;;;10.00;99.90;;;;;;5143728;27;20653;-79
2022/04/24 05:22:00;;;;;;;2.13;1.77;;;10.10;99.90;;;;;;5146656;27;20625;-79
2022/04/24 05:24:27;;;;;;;1.87;1.77;;;9.70;99.90;;;;;;5145513;27;20931;-79
2022/04/24 05:26:54;;;;;;;1.33;1.17;;;9.90;99.90;;;;;;5146442;27;20636;-78
2022/04/24 05:29:20;;;;;;;1.57;1.17;;;9.50;99.90;;;;;;5145896;27;20725;-79
2022/04/24 05:31:47;;;;;;;1.73;1.63;;;9.30;99.90;;;;;;5146999;27;20609;-79
2022/04/24 05:34:14;;;;;;;1.20;1.10;;;9.90;99.90;;;;;;5145261;27;20652;-79
2022/04/24 05:36:41;;;;;;;0.93;0.60;;;9.20;99.90;;;;;;5143815;27;21022;-79
2022/04/24 05:39:09;;;;;;;1.37;0.63;;;9.50;99.90;;;;;;5133316;27;20629;-79
2022/04/24 05:41:35;;;;;;;0.90;0.70;;;9.10;99.90;;;;;;5144424;27;20629;-79
2022/04/24 05:44:02;;;;;;;1.80;1.03;;;9.20;99.90;;;;;;5136210;27;21252;-79
2022/04/24 05:46:30;;;;;;;1.27;0.40;;;9.30;99.90;;;;;;5142983;27;20632;-79
2022/04/24 05:48:58;;;;;;;2.13;0.70;;;9.40;99.90;;;;;;5138157;27;20644;-79
2022/04/24 05:51:25;;;;;;;0.97;0.40;;;9.20;99.90;;;;;;5144253;27;20649;-79
2022/04/24 05:53:52;;;;;;;0.70;0.57;;;9.40;99.90;;;;;;5143838;27;20661;-78
2022/04/24 05:56:20;;;;;;;0.60;0.50;;;9.20;99.90;;;;;;5141230;27;20625;-79
2022/04/24 05:58:47;;;;;;;1.57;0.87;;;9.40;99.90;;;;;;5144812;27;20621;-78
2022/04/24 06:01:14;;;;;;;1.63;0.40;;;8.90;99.90;;;;;;5147495;27;20656;-78
2022/04/24 06:03:41;;;;;;;2.43;1.13;;;8.70;99.90;;;;;;5140581;27;21216;-79
2022/04/24 06:06:08;;;;;;;1.20;0.70;;;9.10;99.90;;;;;;5139034;27;20634;-78
2022/04/24 06:08:35;;;;;;;1.57;1.10;;;9.40;99.90;;;;;;5136165;27;20630;-78
2022/04/24 06:11:02;;;;;;;2.50;0.90;;;9.10;99.90;;;;;;5136493;27;20833;-78
2022/04/24 06:13:30;;;;;;;0.70;0.60;;;8.60;99.90;;;;;;5142829;27;20661;-78
2022/04/24 06:15:57;;;;;;;0.47;0.40;;;9.00;99.90;;;;;;5142704;27;20678;-78
2022/04/24 06:18:24;;;;;;;1.00;0.53;;;8.60;99.90;;;;;;5145450;27;20621;-78
2022/04/24 06:20:51;;;;;;;0.60;0.40;;;9.00;99.90;;;;;;5141981;27;20632;-78
2022/04/24 06:23:18;;;;;;;0.70;0.40;;;8.90;99.90;;;;;;5143411;27;20613;-78
2022/04/24 06:25:45;;;;;;;0.80;0.40;;;8.90;99.90;;;;;;5128599;27;21053;-78
2022/04/24 06:28:12;;;;;;;1.03;0.50;;;8.90;99.90;;;;;;5145987;27;20962;-78
2022/04/24 06:30:41;;;;;;;0.70;0.40;;;8.70;99.90;;;;;;5145996;27;20621;-79
2022/04/24 06:33:08;;;;;;;0.63;0.57;;;8.90;99.90;;;;;;5145738;27;21229;-78
2022/04/24 06:35:35;;;;;;;1.10;0.47;;;9.10;99.90;;;;;;5142964;27;20641;-78
2022/04/24 06:38:02;;;;;;;0.40;0.33;;;9.20;99.90;;;;;;5143164;27;20629;-78
2022/04/24 06:40:29;;;;;;;1.03;0.50;;;8.70;99.90;;;;;;5140866;27;20949;-78
2022/04/24 06:42:57;;;;;;;0.60;0.40;;;8.90;99.90;;;;;;5146161;27;20706;-78
2022/04/24 06:45:26;;;;;;;0.60;0.37;;;9.20;99.90;;;;;;5143181;27;20605;-78
2022/04/24 06:47:55;;;;;;;0.47;0.30;;;8.60;99.90;;;;;;5140925;27;20740;-78
2022/04/24 06:50:25;;;;;;;0.90;0.50;;;8.90;99.90;;;;;;5139472;27;20629;-78
2022/04/24 06:52:59;;;;;;;0.57;0.30;;;9.00;99.90;;;;;;5143730;27;20673;-80
2022/04/24 06:55:26;;;;;;;0.50;0.47;;;9.10;99.90;;;;;;5140968;27;20673;-78
2022/04/24 06:57:53;;;;;;;1.00;0.90;;;8.80;99.90;;;;;;5141173;27;21185;-78
2022/04/24 07:00:20;;;;;;;1.53;1.43;;;8.60;99.90;;;;;;5143497;27;20616;-80
2022/04/24 07:02:48;;;;;;;0.80;0.40;;;9.00;99.90;;;;;;5141113;27;20648;-78
2022/04/24 07:05:17;;;;;;;2.10;0.30;;;9.20;99.90;;;;;;5142138;27;20636;-80
2022/04/24 07:07:44;;;;;;;0.83;0.30;;;8.50;99.90;;;;;;5140652;27;20626;-78
2022/04/24 07:10:11;;;;;;;0.40;0.30;;;8.90;99.90;;;;;;5139546;27;20625;-80
2022/04/24 07:12:51;;;;;;;0.80;0.77;;;8.60;99.90;;;;;;5123070;27;20658;-79
2022/04/24 07:15:20;;;;;;;1.07;0.97;;;8.80;99.90;;;;;;5140088;27;21118;-78
2022/04/24 07:17:47;;;;;;;3.57;3.07;;;8.60;99.90;;;;;;5142414;27;20628;-79
2022/04/24 07:20:18;;;;;;;12.37;10.07;;;9.30;99.90;;;;;;5145843;27;20697;-78
2022/04/24 07:22:46;;;;;;;1.37;0.83;;;8.80;99.90;;;;;;5143579;27;20645;-78
2022/04/24 07:25:14;;;;;;;1.70;1.60;;;9.20;99.90;;;;;;5144137;27;20605;-81
2022/04/24 07:27:42;;;;;;;1.73;1.37;;;9.20;99.90;;;;;;5142384;27;21068;-81
2022/04/24 07:30:13;;;;;;;0.80;0.80;;;9.20;99.90;;;;;;5144851;27;20631;-80
2022/04/24 07:32:41;;;;;;;0.70;0.70;;;9.30;99.90;;;;;;5138500;27;20935;-81
2022/04/24 07:35:10;;;;;;;1.10;1.10;;;8.70;99.90;;;;;;5141287;27;20668;-81
2022/04/24 07:37:40;;;;;;;0.53;0.50;;;9.30;99.90;;;;;;5142378;27;21418;-81
2022/04/24 07:40:08;;;;;;;1.13;0.60;;;9.30;99.90;;;;;;5140768;27;20632;-81
2022/04/24 07:42:45;;;;;;;0.70;0.40;;;9.30;99.90;;;;;;5141496;27;20692;-79
2022/04/24 07:45:12;;;;;;;0.70;0.50;;;8.80;99.90;;;;;;5138223;27;20613;-79
2022/04/24 07:47:38;;;;;;;0.60;0.60;;;9.40;99.90;;;;;;5135936;27;20716;-79
2022/04/24 07:50:07;;;;;;;0.50;0.50;;;9.30;99.90;;;;;;5141569;27;21525;-81
2022/04/24 07:52:34;;;;;;;0.73;0.30;;;9.40;99.90;;;;;;5143339;27;21180;-79
2022/04/24 07:55:02;;;;;;;0.50;0.50;;;9.30;99.90;;;;;;5144673;27;20661;-78
2022/04/24 07:57:29;;;;;;;1.03;0.70;;;9.00;99.90;;;;;;5141968;27;20645;-78
2022/04/24 07:59:55;;;;;;;0.57;0.40;;;9.40;99.90;;;;;;5142272;27;20620;-78
2022/04/24 08:02:22;;;;;;;0.50;0.50;;;9.10;99.90;;;;;;5143766;27;20630;-79
2022/04/24 08:04:49;;;;;;;1.50;1.40;;;9.00;99.90;;;;;;5140158;27;20713;-79
2022/04/24 08:07:17;;;;;;;1.70;1.50;;;9.40;99.90;;;;;;5142592;27;20660;-79
2022/04/24 08:09:44;;;;;;;1.53;1.10;;;9.20;99.90;;;;;;5139884;27;20625;-79
2022/04/24 08:12:12;;;;;;;0.90;0.83;;;9.60;99.90;;;;;;5140692;27;20642;-80
2022/04/24 08:14:39;;;;;;;1.13;0.93;;;9.10;99.90;;;;;;5139092;27;20638;-79
2022/04/24 08:17:05;;;;;;;2.00;0.80;;;9.20;99.90;;;;;;5140844;27;20703;-80
2022/04/24 08:19:32;;;;;;;0.70;0.70;;;9.00;99.90;;;;;;5138738;27;20628;-80
2022/04/24 08:21:59;;;;;;;0.70;0.63;;;9.50;99.90;;;;;;5143545;27;20985;-79
2022/04/24 08:24:25;;;;;;;0.60;0.60;;;9.40;99.90;;;;;;5137392;27;21223;-80
2022/04/24 08:26:52;;;;;;;1.37;1.20;;;9.60;99.90;;;;;;5140363;27;20649;-80
2022/04/24 08:29:20;;;;;;;1.77;1.10;;;9.20;99.90;;;;;;5144028;27;20991;-81
2022/04/24 08:31:47;;;;;;;0.80;0.80;;;9.20;99.90;;;;;;5139329;27;20634;-80
2022/04/24 08:34:14;;;;;;;1.00;0.80;;;9.20;99.90;;;;;;5144319;27;20668;-80
2022/04/24 08:36:40;;;;;;;1.10;1.00;;;9.30;99.90;;;;;;5144259;27;20645;-81
2022/04/24 08:39:07;;;;;;;1.60;0.90;;;9.40;99.90;;;;;;5135377;27;20613;-80
2022/04/24 08:41:37;;;;;;;1.10;0.70;;;9.70;99.90;;;;;;5141696;27;20957;-80
2022/04/24 08:44:08;;;;;;;0.87;0.70;;;9.20;99.90;;;;;;5141985;27;20636;-80
2022/04/24 08:46:36;;;;;;;1.00;0.90;;;9.20;99.90;;;;;;5137112;27;20653;-79
2022/04/24 08:49:03;;;;;;;1.20;1.00;;;9.60;99.90;;;;;;5141505;27;20613;-80
2022/04/24 08:51:33;;;;;;;2.83;1.13;;;9.60;99.90;;;;;;5137898;27;20633;-80
2022/04/24 08:54:01;;;;;;;2.50;1.50;;;9.70;99.90;;;;;;5141538;27;20626;-80
2022/04/24 08:56:28;;;;;;;1.20;1.10;;;9.80;99.90;;;;;;5139595;27;20654;-80
2022/04/24 08:58:55;;;;;;;1.63;1.30;;;9.70;99.90;;;;;;5136580;27;20617;-79
2022/04/24 09:01:22;;;;;;;1.23;1.13;;;9.20;99.90;;;;;;5140169;27;20632;-80
2022/04/24 09:03:53;;;;;;;1.73;1.40;;;9.10;99.90;;;;;;5140914;27;20709;-80
2022/04/24 09:06:22;;;;;;;1.30;1.00;;;9.90;99.90;;;;;;5139174;27;20637;-80
2022/04/24 09:08:54;;;;;;;1.80;1.20;;;9.90;99.90;;;;;;5142913;27;20625;-79
2022/04/24 09:11:24;;;;;;;2.13;1.50;;;9.70;99.90;;;;;;5141630;27;20613;-80
2022/04/24 09:16:36;;;;;;;1.37;1.27;;;9.70;99.90;;;;;;5127775;27;20682;-79
2022/04/24 09:19:05;;;;;;;3.17;1.30;;;9.80;99.90;;;;;;5130330;27;20653;-80
2022/04/24 09:21:32;;;;;;;1.20;1.10;;;9.70;99.90;;;;;;5138292;27;20621;-79
2022/04/24 09:24:01;;;;;;;1.50;1.37;;;9.30;99.90;;;;;;5136094;27;20629;-79
2022/04/24 09:26:29;;;;;;;1.30;1.20;;;9.50;99.90;;;;;;5138198;27;20653;-79
2022/04/24 09:28:56;;;;;;;1.40;1.30;;;9.50;99.90;;;;;;5137538;27;20748;-79
2022/04/24 09:31:29;;;;;;;2.50;1.60;;;9.70;99.90;;;;;;5136772;27;21160;-79
2022/04/24 09:33:56;;;;;;;3.57;1.50;;;9.60;99.90;;;;;;5131996;27;21153;-79
2022/04/24 09:36:26;;;;;;;1.10;1.00;;;9.90;99.90;;;;;;5137955;27;21035;-79
2022/04/24 09:38:53;;;;;;;1.97;1.10;;;9.40;99.90;;;;;;5143146;27;21191;-79
2022/04/24 09:41:22;;;;;;;1.80;1.33;;;9.70;99.90;;;;;;5139367;27;20624;-79
2022/04/24 09:43:49;;;;;;;2.27;1.00;;;9.40;99.90;;;;;;5141916;27;20613;-79
2022/04/24 09:46:26;;;;;;;2.07;1.10;;;9.20;99.90;;;;;;5142322;27;20668;-79
2022/04/24 09:48:53;;;;;;;2.57;2.37;;;9.40;99.90;;;;;;5144627;27;20673;-78
2022/04/24 09:51:21;;;;;;;2.87;2.63;;;9.90;99.90;;;;;;5136467;27;20622;-80
2022/04/24 09:53:51;;;;;;;1.93;1.50;;;9.80;99.90;;;;;;5139997;27;20629;-79
2022/04/24 09:56:18;;;;;;;1.30;1.20;;;10.20;99.90;;;;;;5141148;27;21223;-79
2022/04/24 09:58:45;;;;;;;1.70;1.60;;;10.00;99.90;;;;;;5146329;27;20617;-81
2022/04/24 10:01:13;;;;;;;4.90;1.30;;;10.30;99.90;;;;;;5144991;27;20633;-81
2022/04/24 10:03:40;;;;;;;2.43;1.67;;;10.20;99.90;;;;;;5127071;27;20625;-82
2022/04/24 10:06:09;;;;;;;0.97;0.83;;;10.20;99.90;;;;;;5134645;27;20642;-82
2022/04/24 10:08:36;;;;;;;1.67;1.30;;;9.80;99.90;;;;;;5139830;27;20628;-82
2022/04/24 10:11:07;;;;;;;1.20;1.10;;;10.20;99.90;;;;;;5136752;27;20621;-80
2022/04/24 10:13:39;;;;;;;1.97;0.90;;;9.70;99.90;;;;;;5139192;27;20608;-79
2022/04/24 10:16:21;;;;;;;2.00;1.43;;;9.80;99.90;;;;;;5144577;27;22729;-79
2022/04/24 10:18:55;;;;;;;1.30;1.13;;;10.30;99.90;;;;;;5139700;27;20632;-79
2022/04/24 10:21:38;;;;;;;1.47;1.37;;;10.00;99.90;;;;;;5142292;27;20611;-79
2022/04/24 10:24:09;;;;;;;1.17;1.10;;;10.00;99.90;;;;;;5140344;27;20613;-79
2022/04/24 10:26:37;;;;;;;1.10;1.00;;;10.30;99.90;;;;;;5140287;27;20637;-79
2022/04/24 10:29:06;;;;;;;1.00;1.00;;;10.00;99.90;;;;;;5139183;27;20632;-79
2022/04/24 10:31:43;;;;;;;1.30;1.13;;;10.30;99.90;;;;;;5143356;27;20629;-79
2022/04/24 10:34:11;;;;;;;1.20;1.10;;;9.80;99.90;;;;;;5140266;27;20617;-79
2022/04/24 10:36:38;;;;;;;2.57;1.47;;;10.20;99.90;;;;;;5139435;27;20673;-79
2022/04/24 10:39:16;;;;;;;1.00;1.00;;;10.30;99.90;;;;;;5142209;27;20621;-80
2022/04/24 10:41:54;;;;;;;2.03;1.30;;;10.20;99.90;;;;;;5143548;27;20621;-81
2022/04/24 10:44:22;;;;;;;0.93;0.93;;;10.00;99.90;;;;;;5137764;27;20617;-80
2022/04/24 10:46:50;;;;;;;6.43;1.50;;;10.10;99.90;;;;;;5142178;27;21016;-80
2022/04/24 10:49:18;;;;;;;1.60;1.30;;;10.40;99.90;;;;;;5142569;27;20605;-80
2022/04/24 10:51:57;;;;;;;1.20;1.10;;;10.50;99.90;;;;;;5137761;27;20629;-80
2022/04/24 10:54:31;;;;;;;1.33;1.20;;;10.40;99.90;;;;;;5137073;27;20669;-80
2022/04/24 10:56:59;;;;;;;1.00;1.00;;;10.90;99.90;;;;;;5139677;27;21199;-80
2022/04/24 10:59:26;;;;;;;1.03;0.93;;;10.80;99.90;;;;;;5139869;27;21391;-80
2022/04/24 11:01:55;;;;;;;1.13;1.03;;;10.50;99.90;;;;;;5139560;27;20709;-80
2022/04/24 11:04:23;;;;;;;1.80;1.30;;;10.40;99.90;;;;;;5135350;27;20626;-81
2022/04/24 11:06:54;;;;;;;2.70;1.27;;;10.50;99.90;;;;;;5142764;27;20725;-81
2022/04/24 11:09:21;;;;;;;1.60;1.30;;;10.90;99.90;;;;;;5135210;27;20658;-79
2022/04/24 11:11:48;;;;;;;3.00;1.47;;;10.80;99.90;;;;;;5142310;27;21203;-79
2022/04/24 11:14:22;;;;;;;2.30;1.40;;;10.80;99.90;;;;;;5143896;27;20632;-81
2022/04/24 11:16:50;;;;;;;2.30;2.10;;;10.40;99.90;;;;;;5139455;27;20681;-80
2022/04/24 11:19:21;;;;;;;3.03;2.43;;;10.70;99.90;;;;;;5136965;27;21187;-80
2022/04/24 11:21:54;;;;;;;1.97;1.80;;;10.90;99.90;;;;;;5143910;27;20681;-80
2022/04/24 11:24:21;;;;;;;1.93;1.20;;;11.00;99.90;;;;;;5143939;27;20636;-81
2022/04/24 11:26:49;;;;;;;1.30;1.07;;;10.90;99.90;;;;;;5141014;27;20648;-81
2022/04/24 11:29:15;;;;;;;1.10;0.70;;;11.00;99.90;;;;;;5143321;27;20602;-81
2022/04/24 11:31:51;;;;;;;2.10;1.03;;;11.40;99.90;;;;;;5140466;27;20613;-81
2022/04/24 11:34:19;;;;;;;0.93;0.93;;;11.10;99.90;;;;;;5133723;27;21130;-81
2022/04/24 11:36:46;;;;;;;2.20;1.27;;;11.30;99.90;;;;;;5138972;27;20678;-82
2022/04/24 11:39:13;;;;;;;0.63;0.63;;;10.90;99.90;;;;;;5138224;27;20637;-82
2022/04/24 11:41:43;;;;;;;0.90;0.80;;;10.90;99.90;;;;;;5140564;27;20843;-81
2022/04/24 11:52:23;;;;;;;0.80;0.80;;;11.30;99.90;;;;;;5137813;27;20958;-82
2022/04/24 11:54:51;;;;;;;1.27;0.60;;;11.20;99.90;;;;;;5137394;27;21188;-82
2022/04/24 11:57:18;;;;;;;1.93;0.87;;;11.00;99.90;;;;;;5140221;27;20676;-83
2022/04/24 11:59:55;;;;;;;1.13;0.80;;;11.10;99.90;;;;;;5140318;27;20629;-83
2022/04/24 12:02:26;;;;;;;0.90;0.60;;;11.30;99.90;;;;;;5135130;27;20630;-83
2022/04/24 12:04:53;;;;;;;0.80;0.70;;;10.90;99.90;;;;;;5140317;27;20724;-82
2022/04/24 12:07:21;;;;;;;1.27;0.70;;;11.10;99.90;;;;;;5136678;27;20642;-82
2022/04/24 12:09:58;;;;;;;0.90;0.90;;;11.30;99.90;;;;;;5140526;27;20636;-83
2022/04/24 12:12:25;;;;;;;1.60;1.37;;;11.40;99.90;;;;;;5141172;27;21182;-83
2022/04/24 12:14:52;;;;;;;2.40;2.23;;;11.30;99.90;;;;;;5138569;27;20622;-83
2022/04/24 12:17:19;;;;;;;1.30;1.20;;;11.20;99.90;;;;;;5134361;27;20674;-83
2022/04/24 12:19:52;;;;;;;1.47;0.97;;;11.40;99.90;;;;;;5136975;27;20629;-82
2022/04/24 12:22:28;;;;;;;1.23;1.00;;;11.00;99.90;;;;;;5140935;27;20637;-83
2022/04/24 12:25:05;;;;;;;1.57;1.30;;;10.90;99.90;;;;;;5131644;27;20618;-83
2022/04/24 12:27:32;;;;;;;1.60;1.10;;;11.10;99.90;;;;;;5140902;27;20930;-83
2022/04/24 12:30:03;;;;;;;0.73;0.60;;;11.40;99.90;;;;;;5134385;27;20623;-83
2022/04/24 12:32:30;;;;;;;4.00;1.57;;;11.60;99.90;;;;;;5141203;27;20931;-83
2022/04/24 12:34:58;;;;;;;0.73;0.73;;;11.80;99.90;;;;;;5138912;27;20614;-83
2022/04/24 12:37:32;;;;;;;1.17;0.80;;;11.60;99.90;;;;;;5138688;27;20673;-83
2022/04/24 12:40:01;;;;;;;1.30;1.10;;;11.70;99.90;;;;;;5137590;27;20989;-83
2022/04/24 12:42:28;;;;;;;1.50;1.10;;;11.50;99.90;;;;;;5141962;27;20605;-83
2022/04/24 12:44:55;;;;;;;1.53;1.10;;;11.50;99.90;;;;;;5138400;27;20632;-83
2022/04/24 12:47:22;;;;;;;0.83;0.83;;;11.80;99.90;;;;;;5138165;27;20660;-83
2022/04/24 12:49:49;;;;;;;0.77;0.70;;;11.90;99.90;;;;;;5141082;27;20622;-83
2022/04/24 12:52:21;;;;;;;1.33;1.00;;;11.60;99.90;;;;;;5136234;27;20625;-83
2022/04/24 12:54:48;;;;;;;1.13;0.90;;;11.80;99.90;;;;;;5140971;27;20610;-84
2022/04/24 12:57:16;;;;;;;0.70;0.70;;;12.10;99.90;;;;;;5144405;27;20677;-83